createdAt,value
2022-11-27T00:00:28.362Z,3.42
2022-11-27T00:04:31.559Z,3.67
2022-11-27T00:08:36.233Z,3.13
2022-11-27T00:12:39.383Z,3.30
2022-11-27T00:16:42.775Z,2.70
2022-11-27T00:20:45.731Z,2.80
2022-11-27T00:24:50.182Z,3.15
2022-11-27T00:28:53.436Z,3.10
2022-11-27T00:32:56.421Z,2.90
2022-11-27T00:36:59.365Z,3.38
2022-11-27T00:41:08.547Z,3.13
2022-11-27T00:45:12.260Z,3.25
2022-11-27T00:49:16.438Z,2.95
2022-11-27T00:53:19.349Z,3.15
2022-11-27T00:57:25.060Z,3.20
2022-11-27T01:01:30.360Z,3.50
2022-11-27T01:05:33.413Z,3.15
2022-11-27T01:09:36.363Z,3.22
2022-11-27T01:13:40.632Z,3.08
2022-11-27T01:17:43.611Z,3.45
2022-11-27T01:21:46.787Z,3.50
2022-11-27T01:25:49.718Z,3.22
2022-11-27T01:29:54.070Z,3.25
2022-11-27T01:33:59.335Z,3.38
2022-11-27T01:38:02.363Z,3.72
2022-11-27T01:42:06.061Z,3.47
2022-11-27T01:46:21.568Z,3.25
2022-11-27T01:50:28.194Z,3.05
2022-11-27T01:54:34.101Z,3.28
2022-11-27T01:58:37.539Z,3.47
2022-11-27T02:02:43.211Z,2.88
2022-11-27T02:06:46.528Z,3.20
2022-11-27T02:10:54.575Z,3.13
2022-11-27T02:15:04.799Z,3.17
2022-11-27T02:19:22.006Z,3.53
2022-11-27T02:23:49.756Z,3.22
2022-11-27T02:28:13.120Z,2.90
2022-11-27T02:32:23.121Z,3.05
2022-11-27T02:36:32.486Z,3.05
2022-11-27T02:40:41.074Z,3.20
2022-11-27T02:44:48.763Z,4.00
2022-11-27T02:48:57.963Z,3.00
2022-11-27T02:53:05.576Z,3.20
2022-11-27T02:57:11.015Z,3.53
2022-11-27T03:01:16.042Z,2.95
2022-11-27T03:05:23.764Z,3.42
2022-11-27T03:09:33.724Z,3.22
2022-11-27T03:13:40.601Z,3.25
2022-11-27T03:17:53.846Z,2.90
2022-11-27T03:22:01.083Z,2.88
2022-11-27T03:26:04.031Z,2.92
2022-11-27T03:30:09.426Z,3.63
2022-11-27T03:34:13.055Z,2.97
2022-11-27T03:38:17.723Z,2.78
2022-11-27T03:42:28.543Z,3.22
2022-11-27T03:46:41.002Z,2.90
2022-11-27T03:50:57.547Z,2.83
2022-11-27T03:55:09.498Z,3.28
2022-11-27T03:59:20.226Z,2.78
2022-11-27T04:03:26.194Z,3.35
2022-11-27T04:07:29.175Z,2.90
2022-11-27T04:11:33.866Z,3.17
2022-11-27T04:15:37.926Z,2.97
2022-11-27T04:19:41.074Z,3.17
2022-11-27T04:23:44.609Z,4.20
2022-11-27T04:27:48.929Z,3.55
2022-11-27T04:31:51.966Z,3.38
2022-11-27T04:35:55.018Z,3.30
2022-11-27T04:39:57.973Z,3.63
2022-11-27T04:44:02.481Z,3.97
2022-11-27T04:48:06.135Z,3.47
2022-11-27T04:52:10.798Z,3.65
2022-11-27T04:56:13.744Z,3.08
2022-11-27T05:00:19.154Z,3.60
2022-11-27T05:04:22.477Z,3.05
2022-11-27T05:08:26.004Z,3.78
2022-11-27T05:12:28.980Z,3.47
2022-11-27T05:16:33.401Z,3.88
2022-11-27T05:20:36.422Z,3.95
2022-11-27T05:24:39.881Z,3.92
2022-11-27T05:28:43.003Z,4.40
2022-11-27T05:32:47.291Z,3.88
2022-11-27T05:36:50.274Z,4.47
2022-11-27T05:40:53.163Z,4.32
2022-11-27T05:44:58.418Z,4.10
2022-11-27T05:49:03.018Z,4.00
2022-11-27T05:53:05.982Z,4.65
2022-11-27T05:57:08.910Z,4.45
2022-11-27T06:01:12.580Z,4.47
2022-11-27T06:05:16.974Z,4.53
2022-11-27T06:09:19.860Z,4.85
2022-11-27T06:13:22.777Z,4.70
2022-11-27T06:17:25.663Z,5.20
2022-11-27T06:21:29.929Z,5.53
2022-11-27T06:25:32.840Z,5.80
2022-11-27T06:29:37.638Z,5.75
2022-11-27T06:33:40.514Z,6.13
2022-11-27T06:37:44.792Z,5.93
2022-11-27T06:41:47.997Z,5.03
2022-11-27T06:45:57.132Z,6.18
2022-11-27T06:50:00.172Z,6.43
2022-11-27T06:54:04.569Z,6.00
2022-11-27T06:58:07.499Z,6.90
2022-11-27T07:02:14.616Z,5.90
2022-11-27T07:06:21.886Z,5.55
2022-11-27T07:10:26.163Z,6.68
2022-11-27T07:14:29.354Z,6.38
2022-11-27T07:18:35.524Z,6.30
2022-11-27T07:22:38.817Z,6.03
2022-11-27T07:26:43.119Z,6.45
2022-11-27T07:30:46.074Z,6.63
2022-11-27T07:34:49.212Z,6.85
2022-11-27T07:38:52.253Z,6.80
2022-11-27T07:42:56.592Z,7.40
2022-11-27T07:46:59.907Z,6.68
2022-11-27T07:51:02.993Z,7.00
2022-11-27T07:55:06.678Z,7.53
2022-11-27T07:59:11.140Z,6.63
2022-11-27T08:03:14.105Z,6.38
2022-11-27T08:07:17.262Z,6.63
2022-11-27T08:11:22.557Z,6.22
2022-11-27T08:15:26.887Z,6.43
2022-11-27T08:19:30.038Z,6.80
2022-11-27T08:23:33.187Z,6.68
2022-11-27T08:27:36.322Z,5.63
2022-11-27T08:31:40.644Z,6.85
2022-11-27T08:35:49.298Z,7.68
2022-11-27T08:40:13.345Z,7.25
2022-11-27T08:44:20.389Z,6.13
2022-11-27T08:48:27.686Z,5.85
2022-11-27T08:52:30.615Z,5.60
2022-11-27T08:56:33.646Z,6.35
2022-11-27T09:00:37.993Z,5.82
2022-11-27T09:04:42.653Z,5.53
2022-11-27T09:08:46.609Z,5.35
2022-11-27T09:12:50.233Z,4.97
2022-11-27T09:16:54.098Z,5.88
2022-11-27T09:21:01.703Z,6.03
2022-11-27T09:25:05.180Z,5.53
2022-11-27T09:29:08.095Z,5.57
2022-11-27T09:33:11.064Z,4.70
2022-11-27T09:37:15.335Z,5.22
2022-11-27T09:41:40.566Z,4.30
2022-11-27T09:45:48.663Z,4.40
2022-11-27T09:49:55.969Z,5.00
2022-11-27T09:54:06.642Z,4.10
2022-11-27T09:58:17.276Z,4.22
2022-11-27T10:02:27.479Z,4.53
2022-11-27T10:06:37.102Z,3.60
2022-11-27T10:10:54.987Z,3.75
2022-11-27T10:15:05.782Z,3.58
2022-11-27T10:19:29.029Z,3.80
2022-11-27T10:23:44.381Z,3.70
2022-11-27T10:28:00.339Z,3.58
2022-11-27T10:32:22.159Z,3.72
2022-11-27T10:36:40.059Z,3.47
2022-11-27T10:40:50.896Z,3.47
2022-11-27T10:45:01.682Z,3.33
2022-11-27T10:49:04.611Z,2.92
2022-11-27T10:53:10.718Z,2.67
2022-11-27T10:57:27.770Z,3.22
2022-11-27T11:01:44.307Z,2.78
2022-11-27T11:06:19.266Z,3.10
2022-11-27T11:10:27.459Z,2.70
2022-11-27T11:14:30.405Z,2.85
2022-11-27T11:18:36.849Z,2.80
2022-11-27T11:22:47.507Z,2.97
2022-11-27T11:26:52.557Z,2.97
2022-11-27T11:30:59.745Z,2.60
2022-11-27T11:35:09.245Z,3.50
2022-11-27T11:39:23.664Z,3.60
2022-11-27T11:43:29.009Z,3.47
2022-11-27T11:47:32.530Z,2.70
2022-11-27T11:52:02.745Z,2.92
2022-11-27T11:56:21.777Z,2.80
2022-11-27T12:00:39.999Z,3.10
2022-11-27T12:05:12.598Z,3.17
2022-11-27T12:09:36.979Z,3.28
2022-11-27T12:14:11.313Z,2.85
2022-11-27T12:18:24.114Z,2.53
2022-11-27T12:22:44.756Z,2.72
2022-11-27T12:27:04.899Z,2.00
2022-11-27T12:31:15.715Z,2.70
2022-11-27T12:35:32.337Z,2.08
2022-11-27T12:39:58.375Z,2.10
2022-11-27T12:44:02.838Z,1.95
2022-11-27T12:48:13.318Z,1.55
2022-11-27T12:52:19.876Z,2.20
2022-11-27T12:56:27.475Z,2.00
2022-11-27T13:00:36.106Z,4.07
2022-11-27T13:04:45.285Z,2.80
2022-11-27T13:08:55.460Z,2.00
2022-11-27T13:13:05.981Z,1.60
2022-11-27T13:17:16.269Z,2.15
2022-11-27T13:21:23.614Z,2.13
2022-11-27T13:25:28.040Z,2.13
2022-11-27T13:29:35.013Z,2.22
2022-11-27T13:33:43.285Z,2.00
2022-11-27T13:37:50.254Z,2.10
2022-11-27T13:42:03.445Z,1.95
2022-11-27T13:46:09.372Z,2.08
2022-11-27T13:50:17.111Z,3.03
2022-11-27T13:54:26.029Z,1.92
2022-11-27T13:58:34.565Z,1.98
2022-11-27T14:02:42.988Z,2.33
2022-11-27T14:06:55.348Z,1.95
2022-11-27T14:11:00.717Z,1.80
2022-11-27T14:15:10.225Z,1.83
2022-11-27T14:19:33.492Z,2.42
2022-11-27T14:23:50.966Z,1.80
2022-11-27T14:28:05.144Z,3.00
2022-11-27T14:32:13.201Z,2.03
2022-11-27T14:36:23.687Z,1.88
2022-11-27T14:40:29.001Z,1.80
2022-11-27T14:44:32.958Z,1.85
2022-11-27T14:48:44.652Z,1.95
2022-11-27T14:52:54.241Z,1.83
2022-11-27T14:56:59.324Z,2.22
2022-11-27T15:01:04.630Z,2.47
2022-11-27T15:05:19.504Z,2.92
2022-11-27T15:09:31.875Z,2.88
2022-11-27T15:13:38.876Z,3.15
2022-11-27T15:17:46.398Z,3.03
2022-11-27T15:21:51.048Z,3.05
2022-11-27T15:26:11.011Z,3.70
2022-11-27T15:30:20.252Z,3.35
2022-11-27T15:34:24.684Z,3.22
2022-11-27T15:38:27.786Z,3.58
2022-11-27T15:42:30.703Z,3.50
2022-11-27T15:46:36.509Z,3.40
2022-11-27T15:50:39.467Z,3.20
2022-11-27T15:54:42.642Z,4.32
2022-11-27T15:58:45.959Z,3.88
2022-11-27T16:02:50.369Z,4.50
2022-11-27T16:06:53.542Z,4.10
2022-11-27T16:11:01.882Z,4.13
2022-11-27T16:15:05.136Z,4.70
2022-11-27T16:19:12.147Z,5.00
2022-11-27T16:23:15.420Z,4.30
2022-11-27T16:27:18.340Z,4.78
2022-11-27T16:31:21.902Z,4.97
2022-11-27T16:35:26.853Z,5.53
2022-11-27T16:39:29.892Z,4.93
2022-11-27T16:43:36.238Z,5.45
2022-11-27T16:47:39.839Z,5.38
2022-11-27T16:51:44.411Z,4.68
2022-11-27T16:55:47.745Z,4.70
2022-11-27T16:59:51.443Z,5.03
2022-11-27T17:03:56.603Z,4.70
2022-11-27T17:08:00.942Z,4.82
2022-11-27T17:12:04.114Z,4.60
2022-11-27T17:16:09.678Z,5.47
2022-11-27T17:20:12.712Z,4.75
2022-11-27T17:24:18.237Z,5.82
2022-11-27T17:28:21.491Z,5.93
2022-11-27T17:32:25.235Z,5.95
2022-11-27T17:36:36.605Z,4.65
2022-11-27T17:40:41.815Z,4.43
2022-11-27T17:44:44.721Z,4.18
2022-11-27T17:48:47.793Z,3.92
2022-11-27T17:52:53.485Z,4.57
2022-11-27T17:56:57.689Z,4.22
2022-11-27T18:01:02.347Z,4.32
2022-11-27T18:05:07.034Z,4.75
2022-11-27T18:09:10.035Z,4.47
2022-11-27T18:13:14.706Z,5.57
2022-11-27T18:17:18.800Z,5.45
2022-11-27T18:21:22.544Z,6.70
2022-11-27T18:25:25.503Z,7.47
2022-11-27T18:29:30.159Z,7.60
2022-11-27T18:33:33.120Z,8.10
2022-11-27T18:37:38.462Z,9.07
2022-11-27T18:41:41.921Z,8.45
2022-11-27T18:45:46.283Z,9.65
2022-11-27T18:49:49.385Z,10.05
2022-11-27T18:53:53.027Z,10.18
2022-11-27T18:57:56.368Z,10.57
2022-11-27T19:02:01.016Z,10.18
2022-11-27T19:06:05.615Z,9.25
2022-11-27T19:10:09.724Z,8.02
2022-11-27T19:14:13.606Z,8.05
2022-11-27T19:18:18.176Z,8.05
2022-11-27T19:22:21.440Z,8.00
2022-11-27T19:26:27.344Z,8.38
2022-11-27T19:30:34.039Z,8.55
2022-11-27T19:34:38.730Z,7.70
2022-11-27T19:38:44.539Z,8.30
2022-11-27T19:42:47.730Z,8.15
2022-11-27T19:46:51.657Z,8.50
2022-11-27T19:51:02.495Z,8.13
2022-11-27T19:55:06.458Z,9.57
2022-11-27T19:59:10.201Z,9.40
2022-11-27T20:03:15.413Z,9.38
2022-11-27T20:07:20.405Z,9.23
2022-11-27T20:11:29.771Z,8.80
2022-11-27T20:15:36.123Z,9.18
2022-11-27T20:19:40.094Z,9.18
2022-11-27T20:23:45.931Z,9.48
2022-11-27T20:27:49.035Z,9.18
2022-11-27T20:31:52.092Z,8.63
2022-11-27T20:35:55.338Z,9.43
2022-11-27T20:40:00.111Z,8.73
2022-11-27T20:44:05.725Z,8.90
2022-11-27T20:48:09.622Z,9.23
2022-11-27T20:52:14.641Z,8.50
2022-11-27T20:56:20.733Z,8.25
2022-11-27T21:00:24.817Z,7.47
2022-11-27T21:04:28.050Z,8.80
2022-11-27T21:08:31.742Z,8.20
2022-11-27T21:12:36.970Z,8.55
2022-11-27T21:16:42.731Z,8.23
2022-11-27T21:20:47.574Z,7.75
2022-11-27T21:24:51.622Z,7.50
2022-11-27T21:28:56.265Z,8.10
2022-11-27T21:33:00.098Z,8.07
2022-11-27T21:37:04.645Z,7.72
2022-11-27T21:41:08.181Z,7.57
2022-11-27T21:45:12.911Z,8.93
2022-11-27T21:49:18.266Z,9.05
2022-11-27T21:53:21.861Z,9.00
2022-11-27T21:57:25.041Z,8.88
2022-11-27T22:01:30.028Z,8.60
2022-11-27T22:05:33.494Z,9.23
2022-11-27T22:09:36.535Z,9.68
2022-11-27T22:13:41.148Z,9.73
2022-11-27T22:17:46.246Z,8.35
2022-11-27T22:21:49.694Z,9.13
2022-11-27T22:25:53.017Z,9.52
2022-11-27T22:29:56.628Z,9.90
2022-11-27T22:34:01.706Z,9.57
2022-11-27T22:38:05.016Z,9.05
2022-11-27T22:42:08.483Z,9.63
2022-11-27T22:46:14.659Z,9.80
2022-11-27T22:50:19.515Z,9.38
2022-11-27T22:54:22.948Z,10.13
2022-11-27T22:58:27.764Z,9.98
2022-11-27T23:02:30.695Z,10.73
2022-11-27T23:06:36.035Z,9.70
2022-11-27T23:10:40.191Z,10.02
2022-11-27T23:14:43.412Z,9.82
2022-11-27T23:18:46.489Z,9.60
2022-11-27T23:22:51.286Z,10.35
2022-11-27T23:26:54.200Z,10.18
2022-11-27T23:31:15.574Z,10.43
2022-11-27T23:35:20.075Z,10.90
2022-11-27T23:39:24.628Z,10.80
2022-11-27T23:43:27.649Z,10.02
2022-11-27T23:47:31.437Z,9.40
2022-11-27T23:51:34.518Z,10.73
2022-11-27T23:55:38.761Z,9.45
2022-11-27T23:59:41.751Z,10.35
